sensor_id;sensor_type;location;lat;lon;timestamp;temperature;humidity
20827;DHT22;10574;52.508;13.236;2023-04-24T00:00:33;11.80;99.90
20827;DHT22;10574;52.508;13.236;2023-04-24T00:03:02;11.80;99.90
20827;DHT22;10574;52.508;13.236;2023-04-24T00:05:30;11.70;99.90
20827;DHT22;10574;52.508;13.236;2023-04-24T00:07:58;11.70;99.90
20827;DHT22;10574;52.508;13.236;2023-04-24T00:10:25;11.60;99.90
20827;DHT22;10574;52.508;13.236;2023-04-24T00:12:53;11.70;99.90
20827;DHT22;10574;52.508;13.236;2023-04-24T00:15:21;11.60;99.90
20827;DHT22;10574;52.508;13.236;2023-04-24T00:17:49;11.60;99.90
20827;DHT22;10574;52.508;13.236;2023-04-24T00:20:16;11.60;99.90
20827;DHT22;10574;52.508;13.236;2023-04-24T00:22:45;11.50;99.90
20827;DHT22;10574;52.508;13.236;2023-04-24T00:25:13;11.50;99.90
20827;DHT22;10574;52.508;13.236;2023-04-24T00:27:40;11.50;99.90
20827;DHT22;10574;52.508;13.236;2023-04-24T00:30:09;11.50;99.90
20827;DHT22;10574;52.508;13.236;2023-04-24T00:32:37;11.50;99.90
20827;DHT22;10574;52.508;13.236;2023-04-24T00:35:05;11.50;99.90
20827;DHT22;10574;52.508;13.236;2023-04-24T00:37:33;11.40;99.90
20827;DHT22;10574;52.508;13.236;2023-04-24T00:40:01;11.50;99.90
20827;DHT22;10574;52.508;13.236;2023-04-24T00:42:29;11.40;99.90
20827;DHT22;10574;52.508;13.236;2023-04-24T00:44:58;11.40;99.90
20827;DHT22;10574;52.508;13.236;2023-04-24T00:47:26;11.40;99.90
20827;DHT22;10574;52.508;13.236;2023-04-24T00:49:54;11.40;99.90
20827;DHT22;10574;52.508;13.236;2023-04-24T00:52:22;11.40;99.90
20827;DHT22;10574;52.508;13.236;2023-04-24T00:54:50;11.50;99.90
20827;DHT22;10574;52.508;13.236;2023-04-24T00:57:18;11.50;99.90
20827;DHT22;10574;52.508;13.236;2023-04-24T00:59:46;11.50;99.90
20827;DHT22;10574;52.508;13.236;2023-04-24T01:02:14;11.50;99.90
20827;DHT22;10574;52.508;13.236;2023-04-24T01:04:43;11.60;99.90
20827;DHT22;10574;52.508;13.236;2023-04-24T01:07:10;11.60;99.90
20827;DHT22;10574;52.508;13.236;2023-04-24T01:09:40;11.70;99.90
20827;DHT22;10574;52.508;13.236;2023-04-24T01:12:12;11.60;99.90
20827;DHT22;10574;52.508;13.236;2023-04-24T01:14:39;11.60;99.90
20827;DHT22;10574;52.508;13.236;2023-04-24T01:17:07;11.70;99.90
20827;DHT22;10574;52.508;13.236;2023-04-24T01:19:35;11.60;99.90
20827;DHT22;10574;52.508;13.236;2023-04-24T01:22:15;11.70;99.90
20827;DHT22;10574;52.508;13.236;2023-04-24T01:24:43;11.70;99.90
20827;DHT22;10574;52.508;13.236;2023-04-24T01:27:11;11.70;99.90
20827;DHT22;10574;52.508;13.236;2023-04-24T01:29:40;11.80;99.90
20827;DHT22;10574;52.508;13.236;2023-04-24T01:32:08;11.80;99.90
20827;DHT22;10574;52.508;13.236;2023-04-24T01:34:37;11.80;99.90
20827;DHT22;10574;52.508;13.236;2023-04-24T01:37:04;11.80;99.90
20827;DHT22;10574;52.508;13.236;2023-04-24T01:39:32;11.70;99.90
20827;DHT22;10574;52.508;13.236;2023-04-24T01:42:01;11.70;99.90
20827;DHT22;10574;52.508;13.236;2023-04-24T01:44:30;11.60;99.90
20827;DHT22;10574;52.508;13.236;2023-04-24T01:47:00;11.50;99.90
20827;DHT22;10574;52.508;13.236;2023-04-24T01:49:28;11.50;99.90
20827;DHT22;10574;52.508;13.236;2023-04-24T01:51:55;11.50;99.90
20827;DHT22;10574;52.508;13.236;2023-04-24T01:54:23;11.50;99.90
20827;DHT22;10574;52.508;13.236;2023-04-24T01:56:51;11.50;99.90
20827;DHT22;10574;52.508;13.236;2023-04-24T01:59:20;11.40;99.90
20827;DHT22;10574;52.508;13.236;2023-04-24T02:01:49;11.40;99.90
20827;DHT22;10574;52.508;13.236;2023-04-24T02:04:16;11.40;99.90
20827;DHT22;10574;52.508;13.236;2023-04-24T02:06:44;11.40;99.90
20827;DHT22;10574;52.508;13.236;2023-04-24T02:09:12;11.40;99.90
20827;DHT22;10574;52.508;13.236;2023-04-24T02:11:40;11.30;99.90
20827;DHT22;10574;52.508;13.236;2023-04-24T02:14:07;11.30;99.90
20827;DHT22;10574;52.508;13.236;2023-04-24T02:16:35;11.30;99.90
20827;DHT22;10574;52.508;13.236;2023-04-24T02:19:03;11.30;99.90
20827;DHT22;10574;52.508;13.236;2023-04-24T02:21:31;11.40;99.90
20827;DHT22;10574;52.508;13.236;2023-04-24T02:23:59;11.40;99.90
20827;DHT22;10574;52.508;13.236;2023-04-24T02:26:27;11.40;99.90
20827;DHT22;10574;52.508;13.236;2023-04-24T02:28:54;11.40;99.90
20827;DHT22;10574;52.508;13.236;2023-04-24T02:31:22;11.40;99.90
20827;DHT22;10574;52.508;13.236;2023-04-24T02:33:50;11.30;99.90
20827;DHT22;10574;52.508;13.236;2023-04-24T02:36:17;11.30;99.90
20827;DHT22;10574;52.508;13.236;2023-04-24T02:38:45;11.30;99.90
20827;DHT22;10574;52.508;13.236;2023-04-24T02:41:13;11.30;99.90
20827;DHT22;10574;52.508;13.236;2023-04-24T02:43:41;11.30;99.90
20827;DHT22;10574;52.508;13.236;2023-04-24T02:46:08;11.20;99.90
20827;DHT22;10574;52.508;13.236;2023-04-24T02:48:36;11.20;99.90
20827;DHT22;10574;52.508;13.236;2023-04-24T02:51:05;11.10;99.90
20827;DHT22;10574;52.508;13.236;2023-04-24T02:53:33;11.10;99.90
20827;DHT22;10574;52.508;13.236;2023-04-24T02:56:00;11.20;99.90
20827;DHT22;10574;52.508;13.236;2023-04-24T02:58:28;11.20;99.90
20827;DHT22;10574;52.508;13.236;2023-04-24T03:00:56;11.20;99.90
20827;DHT22;10574;52.508;13.236;2023-04-24T03:03:24;11.10;99.90
20827;DHT22;10574;52.508;13.236;2023-04-24T03:05:52;11.10;99.90
20827;DHT22;10574;52.508;13.236;2023-04-24T03:08:20;11.10;99.90
20827;DHT22;10574;52.508;13.236;2023-04-24T03:10:48;11.10;99.90
20827;DHT22;10574;52.508;13.236;2023-04-24T03:13:16;11.10;99.90
20827;DHT22;10574;52.508;13.236;2023-04-24T03:15:44;11.00;99.90
20827;DHT22;10574;52.508;13.236;2023-04-24T03:18:13;11.00;99.90
20827;DHT22;10574;52.508;13.236;2023-04-24T03:20:42;11.10;99.90
20827;DHT22;10574;52.508;13.236;2023-04-24T03:23:11;11.10;99.90
20827;DHT22;10574;52.508;13.236;2023-04-24T03:25:39;11.10;99.90
20827;DHT22;10574;52.508;13.236;2023-04-24T03:28:07;11.20;99.90
20827;DHT22;10574;52.508;13.236;2023-04-24T03:30:35;11.20;99.90
20827;DHT22;10574;52.508;13.236;2023-04-24T03:33:02;11.20;99.90
20827;DHT22;10574;52.508;13.236;2023-04-24T03:35:30;11.20;99.90
20827;DHT22;10574;52.508;13.236;2023-04-24T03:37:58;11.20;99.90
20827;DHT22;10574;52.508;13.236;2023-04-24T03:40:26;11.30;99.90
20827;DHT22;10574;52.508;13.236;2023-04-24T03:42:55;11.20;99.90
20827;DHT22;10574;52.508;13.236;2023-04-24T03:45:23;11.20;99.90
20827;DHT22;10574;52.508;13.236;2023-04-24T03:47:50;11.30;99.90
20827;DHT22;10574;52.508;13.236;2023-04-24T03:50:18;11.20;99.90
20827;DHT22;10574;52.508;13.236;2023-04-24T03:52:46;11.30;99.90
20827;DHT22;10574;52.508;13.236;2023-04-24T03:55:14;11.30;99.90
20827;DHT22;10574;52.508;13.236;2023-04-24T03:57:42;11.30;99.90
20827;DHT22;10574;52.508;13.236;2023-04-24T04:00:11;11.30;99.90
20827;DHT22;10574;52.508;13.236;2023-04-24T04:02:38;11.30;99.90
20827;DHT22;10574;52.508;13.236;2023-04-24T04:05:07;11.30;99.90
20827;DHT22;10574;52.508;13.236;2023-04-24T04:07:34;11.30;99.90
20827;DHT22;10574;52.508;13.236;2023-04-24T04:10:02;11.30;99.90
20827;DHT22;10574;52.508;13.236;2023-04-24T04:12:30;11.40;99.90
20827;DHT22;10574;52.508;13.236;2023-04-24T04:14:58;11.40;99.90
20827;DHT22;10574;52.508;13.236;2023-04-24T04:17:25;11.40;99.90
20827;DHT22;10574;52.508;13.236;2023-04-24T04:19:53;11.40;99.90
20827;DHT22;10574;52.508;13.236;2023-04-24T04:22:21;11.30;99.90
20827;DHT22;10574;52.508;13.236;2023-04-24T04:24:49;11.30;99.90
20827;DHT22;10574;52.508;13.236;2023-04-24T04:27:17;11.30;99.90
20827;DHT22;10574;52.508;13.236;2023-04-24T04:29:45;11.30;99.90
20827;DHT22;10574;52.508;13.236;2023-04-24T04:32:13;11.30;99.90
20827;DHT22;10574;52.508;13.236;2023-04-24T04:34:41;11.30;99.90
20827;DHT22;10574;52.508;13.236;2023-04-24T04:37:11;11.30;99.90
20827;DHT22;10574;52.508;13.236;2023-04-24T04:39:39;11.30;99.90
20827;DHT22;10574;52.508;13.236;2023-04-24T04:42:07;11.30;99.90
20827;DHT22;10574;52.508;13.236;2023-04-24T04:44:35;11.30;99.90
20827;DHT22;10574;52.508;13.236;2023-04-24T04:47:03;11.30;99.90
20827;DHT22;10574;52.508;13.236;2023-04-24T04:49:32;11.40;99.90
20827;DHT22;10574;52.508;13.236;2023-04-24T04:52:01;11.40;99.90
20827;DHT22;10574;52.508;13.236;2023-04-24T04:54:28;11.50;99.90
20827;DHT22;10574;52.508;13.236;2023-04-24T04:56:56;11.50;99.90
20827;DHT22;10574;52.508;13.236;2023-04-24T04:59:24;11.50;99.90
20827;DHT22;10574;52.508;13.236;2023-04-24T05:01:54;11.50;99.90
20827;DHT22;10574;52.508;13.236;2023-04-24T05:04:22;11.50;99.90
20827;DHT22;10574;52.508;13.236;2023-04-24T05:06:50;11.60;99.90
20827;DHT22;10574;52.508;13.236;2023-04-24T05:09:18;11.70;99.90
20827;DHT22;10574;52.508;13.236;2023-04-24T05:11:46;11.90;99.90
20827;DHT22;10574;52.508;13.236;2023-04-24T05:14:13;12.10;99.90
20827;DHT22;10574;52.508;13.236;2023-04-24T05:16:41;12.30;99.90
20827;DHT22;10574;52.508;13.236;2023-04-24T05:19:09;12.30;99.90
20827;DHT22;10574;52.508;13.236;2023-04-24T05:21:38;12.40;99.90
20827;DHT22;10574;52.508;13.236;2023-04-24T05:24:06;12.60;99.90
20827;DHT22;10574;52.508;13.236;2023-04-24T05:26:33;13.00;99.90
20827;DHT22;10574;52.508;13.236;2023-04-24T05:29:03;13.30;99.90
20827;DHT22;10574;52.508;13.236;2023-04-24T05:31:31;13.30;99.90
20827;DHT22;10574;52.508;13.236;2023-04-24T05:34:05;13.40;99.90
20827;DHT22;10574;52.508;13.236;2023-04-24T05:36:36;13.60;99.90
20827;DHT22;10574;52.508;13.236;2023-04-24T05:39:03;13.90;99.90
20827;DHT22;10574;52.508;13.236;2023-04-24T05:41:31;14.30;99.90
20827;DHT22;10574;52.508;13.236;2023-04-24T05:43:59;14.40;99.90
20827;DHT22;10574;52.508;13.236;2023-04-24T05:46:27;14.40;99.90
20827;DHT22;10574;52.508;13.236;2023-04-24T05:48:54;14.90;99.90
20827;DHT22;10574;52.508;13.236;2023-04-24T05:51:23;15.30;99.90
20827;DHT22;10574;52.508;13.236;2023-04-24T05:53:51;15.50;99.90
20827;DHT22;10574;52.508;13.236;2023-04-24T05:56:18;15.50;99.90
20827;DHT22;10574;52.508;13.236;2023-04-24T05:58:47;15.60;99.90
20827;DHT22;10574;52.508;13.236;2023-04-24T06:01:14;16.00;99.90
20827;DHT22;10574;52.508;13.236;2023-04-24T06:03:42;16.40;99.90
20827;DHT22;10574;52.508;13.236;2023-04-24T06:06:10;16.70;99.90
20827;DHT22;10574;52.508;13.236;2023-04-24T06:08:38;16.70;99.90
20827;DHT22;10574;52.508;13.236;2023-04-24T06:11:05;16.40;99.90
20827;DHT22;10574;52.508;13.236;2023-04-24T06:13:33;16.00;99.90
20827;DHT22;10574;52.508;13.236;2023-04-24T06:16:01;15.80;99.90
20827;DHT22;10574;52.508;13.236;2023-04-24T06:18:29;16.00;99.90
20827;DHT22;10574;52.508;13.236;2023-04-24T06:20:57;16.60;99.90
20827;DHT22;10574;52.508;13.236;2023-04-24T06:23:25;16.80;99.90
20827;DHT22;10574;52.508;13.236;2023-04-24T06:25:52;17.20;99.90
20827;DHT22;10574;52.508;13.236;2023-04-24T06:28:20;17.50;99.90
20827;DHT22;10574;52.508;13.236;2023-04-24T06:30:48;17.90;99.90
20827;DHT22;10574;52.508;13.236;2023-04-24T06:33:16;18.00;99.90
20827;DHT22;10574;52.508;13.236;2023-04-24T06:35:44;18.10;99.90
20827;DHT22;10574;52.508;13.236;2023-04-24T06:38:12;18.40;99.90
20827;DHT22;10574;52.508;13.236;2023-04-24T06:40:40;18.80;99.90
20827;DHT22;10574;52.508;13.236;2023-04-24T06:43:09;18.80;99.90
20827;DHT22;10574;52.508;13.236;2023-04-24T06:45:38;18.80;99.90
20827;DHT22;10574;52.508;13.236;2023-04-24T06:48:06;18.80;99.90
20827;DHT22;10574;52.508;13.236;2023-04-24T06:50:34;18.80;99.90
20827;DHT22;10574;52.508;13.236;2023-04-24T06:53:01;18.80;99.90
20827;DHT22;10574;52.508;13.236;2023-04-24T06:55:30;18.70;99.90
20827;DHT22;10574;52.508;13.236;2023-04-24T06:57:57;18.30;99.90
20827;DHT22;10574;52.508;13.236;2023-04-24T07:00:25;17.80;99.90
20827;DHT22;10574;52.508;13.236;2023-04-24T07:02:53;17.30;99.90
20827;DHT22;10574;52.508;13.236;2023-04-24T07:05:21;16.90;99.90
20827;DHT22;10574;52.508;13.236;2023-04-24T07:07:49;16.90;99.90
20827;DHT22;10574;52.508;13.236;2023-04-24T07:10:17;16.90;99.90
20827;DHT22;10574;52.508;13.236;2023-04-24T07:12:46;16.80;99.90
20827;DHT22;10574;52.508;13.236;2023-04-24T07:15:14;16.50;99.90
20827;DHT22;10574;52.508;13.236;2023-04-24T07:17:42;16.40;99.90
20827;DHT22;10574;52.508;13.236;2023-04-24T07:20:11;16.40;99.90
20827;DHT22;10574;52.508;13.236;2023-04-24T07:22:42;16.80;99.90
20827;DHT22;10574;52.508;13.236;2023-04-24T07:25:10;17.50;99.90
20827;DHT22;10574;52.508;13.236;2023-04-24T07:27:38;18.10;99.90
20827;DHT22;10574;52.508;13.236;2023-04-24T07:30:07;18.50;99.90
20827;DHT22;10574;52.508;13.236;2023-04-24T07:32:35;18.80;99.90
20827;DHT22;10574;52.508;13.236;2023-04-24T07:35:03;19.00;99.90
20827;DHT22;10574;52.508;13.236;2023-04-24T07:37:31;19.00;99.90
20827;DHT22;10574;52.508;13.236;2023-04-24T07:39:58;19.00;99.90
20827;DHT22;10574;52.508;13.236;2023-04-24T07:42:26;19.20;99.90
20827;DHT22;10574;52.508;13.236;2023-04-24T07:44:56;19.40;99.90
20827;DHT22;10574;52.508;13.236;2023-04-24T07:47:26;19.40;99.90
20827;DHT22;10574;52.508;13.236;2023-04-24T07:49:54;19.40;99.90
20827;DHT22;10574;52.508;13.236;2023-04-24T07:52:21;19.00;99.90
20827;DHT22;10574;52.508;13.236;2023-04-24T07:54:49;18.60;99.90
20827;DHT22;10574;52.508;13.236;2023-04-24T07:57:18;18.50;99.90
20827;DHT22;10574;52.508;13.236;2023-04-24T07:59:46;18.10;99.90
20827;DHT22;10574;52.508;13.236;2023-04-24T08:02:14;18.30;99.90
20827;DHT22;10574;52.508;13.236;2023-04-24T08:04:42;18.50;99.90
20827;DHT22;10574;52.508;13.236;2023-04-24T08:07:10;18.80;99.90
20827;DHT22;10574;52.508;13.236;2023-04-24T08:09:39;19.00;99.90
20827;DHT22;10574;52.508;13.236;2023-04-24T08:12:07;19.40;99.90
20827;DHT22;10574;52.508;13.236;2023-04-24T08:14:34;19.40;99.90
20827;DHT22;10574;52.508;13.236;2023-04-24T08:17:02;19.10;99.90
20827;DHT22;10574;52.508;13.236;2023-04-24T08:19:30;19.00;99.90
20827;DHT22;10574;52.508;13.236;2023-04-24T08:21:58;18.90;99.90
20827;DHT22;10574;52.508;13.236;2023-04-24T08:24:26;19.20;99.90
20827;DHT22;10574;52.508;13.236;2023-04-24T08:26:54;18.90;99.90
20827;DHT22;10574;52.508;13.236;2023-04-24T08:29:23;18.60;99.90
20827;DHT22;10574;52.508;13.236;2023-04-24T08:31:51;18.50;99.90
20827;DHT22;10574;52.508;13.236;2023-04-24T08:34:21;18.30;99.90
20827;DHT22;10574;52.508;13.236;2023-04-24T08:36:50;18.20;99.90
20827;DHT22;10574;52.508;13.236;2023-04-24T08:39:18;18.20;99.90
20827;DHT22;10574;52.508;13.236;2023-04-24T08:41:45;18.40;99.90
20827;DHT22;10574;52.508;13.236;2023-04-24T08:44:15;18.20;99.90
20827;DHT22;10574;52.508;13.236;2023-04-24T08:46:48;17.50;99.90
20827;DHT22;10574;52.508;13.236;2023-04-24T08:49:18;17.10;99.90
20827;DHT22;10574;52.508;13.236;2023-04-24T08:51:46;17.10;99.90
20827;DHT22;10574;52.508;13.236;2023-04-24T08:54:14;17.20;99.90
20827;DHT22;10574;52.508;13.236;2023-04-24T08:56:44;17.50;99.90
20827;DHT22;10574;52.508;13.236;2023-04-24T08:59:12;17.50;99.90
20827;DHT22;10574;52.508;13.236;2023-04-24T09:01:41;17.50;99.90
20827;DHT22;10574;52.508;13.236;2023-04-24T09:04:10;16.90;99.90
20827;DHT22;10574;52.508;13.236;2023-04-24T09:06:38;17.00;99.90
20827;DHT22;10574;52.508;13.236;2023-04-24T09:09:07;17.10;99.90
20827;DHT22;10574;52.508;13.236;2023-04-24T09:14:24;17.20;99.90
20827;DHT22;10574;52.508;13.236;2023-04-24T09:16:52;17.20;99.90
20827;DHT22;10574;52.508;13.236;2023-04-24T09:19:20;17.40;99.90
20827;DHT22;10574;52.508;13.236;2023-04-24T09:21:48;17.70;99.90
20827;DHT22;10574;52.508;13.236;2023-04-24T09:24:20;17.70;99.90
20827;DHT22;10574;52.508;13.236;2023-04-24T09:26:58;17.70;99.90
20827;DHT22;10574;52.508;13.236;2023-04-24T09:29:28;17.20;99.90
20827;DHT22;10574;52.508;13.236;2023-04-24T09:31:56;17.40;99.90
20827;DHT22;10574;52.508;13.236;2023-04-24T09:34:25;17.40;99.90
20827;DHT22;10574;52.508;13.236;2023-04-24T09:36:54;17.30;99.90
20827;DHT22;10574;52.508;13.236;2023-04-24T09:39:22;17.20;99.90
20827;DHT22;10574;52.508;13.236;2023-04-24T09:41:52;17.10;99.90
20827;DHT22;10574;52.508;13.236;2023-04-24T09:44:22;16.90;99.90
20827;DHT22;10574;52.508;13.236;2023-04-24T09:46:58;17.00;99.90
20827;DHT22;10574;52.508;13.236;2023-04-24T09:49:28;17.20;99.90
20827;DHT22;10574;52.508;13.236;2023-04-24T09:52:07;17.30;99.90
20827;DHT22;10574;52.508;13.236;2023-04-24T09:54:37;17.20;99.90
20827;DHT22;10574;52.508;13.236;2023-04-24T09:57:07;17.10;99.90
20827;DHT22;10574;52.508;13.236;2023-04-24T09:59:41;17.00;99.90
20827;DHT22;10574;52.508;13.236;2023-04-24T10:02:18;16.80;99.90
20827;DHT22;10574;52.508;13.236;2023-04-24T10:04:56;17.00;99.90
20827;DHT22;10574;52.508;13.236;2023-04-24T10:07:28;17.20;99.90
20827;DHT22;10574;52.508;13.236;2023-04-24T10:09:56;17.10;99.90
20827;DHT22;10574;52.508;13.236;2023-04-24T10:12:26;17.40;99.90
20827;DHT22;10574;52.508;13.236;2023-04-24T10:14:55;17.10;99.90
20827;DHT22;10574;52.508;13.236;2023-04-24T10:17:25;17.10;99.90
20827;DHT22;10574;52.508;13.236;2023-04-24T10:19:53;16.90;99.90
20827;DHT22;10574;52.508;13.236;2023-04-24T10:22:22;16.80;99.90
20827;DHT22;10574;52.508;13.236;2023-04-24T10:24:50;16.80;99.90
20827;DHT22;10574;52.508;13.236;2023-04-24T10:27:20;16.80;99.90
20827;DHT22;10574;52.508;13.236;2023-04-24T10:29:51;16.70;99.90
20827;DHT22;10574;52.508;13.236;2023-04-24T10:32:19;16.60;99.90
20827;DHT22;10574;52.508;13.236;2023-04-24T10:34:48;16.60;99.90
20827;DHT22;10574;52.508;13.236;2023-04-24T10:37:16;16.60;99.90
20827;DHT22;10574;52.508;13.236;2023-04-24T10:39:47;16.50;99.90
20827;DHT22;10574;52.508;13.236;2023-04-24T10:42:17;16.10;99.90
20827;DHT22;10574;52.508;13.236;2023-04-24T10:44:47;16.00;99.90
20827;DHT22;10574;52.508;13.236;2023-04-24T10:47:16;15.90;99.90
20827;DHT22;10574;52.508;13.236;2023-04-24T10:49:45;15.80;99.90
20827;DHT22;10574;52.508;13.236;2023-04-24T10:52:14;16.00;99.90
20827;DHT22;10574;52.508;13.236;2023-04-24T10:54:45;16.10;99.90
20827;DHT22;10574;52.508;13.236;2023-04-24T11:00:09;16.90;99.90
20827;DHT22;10574;52.508;13.236;2023-04-24T11:02:35;17.20;99.90
20827;DHT22;10574;52.508;13.236;2023-04-24T11:04:51;17.20;99.90
20827;DHT22;10574;52.508;13.236;2023-04-24T11:07:21;17.10;99.90
20827;DHT22;10574;52.508;13.236;2023-04-24T11:09:55;16.90;99.90
20827;DHT22;10574;52.508;13.236;2023-04-24T11:12:19;16.60;99.90
20827;DHT22;10574;52.508;13.236;2023-04-24T11:17:37;16.60;99.90
20827;DHT22;10574;52.508;13.236;2023-04-24T11:20:09;16.60;99.90
20827;DHT22;10574;52.508;13.236;2023-04-24T11:22:39;16.50;99.90
20827;DHT22;10574;52.508;13.236;2023-04-24T11:25:07;16.40;99.90
20827;DHT22;10574;52.508;13.236;2023-04-24T11:27:40;16.30;99.90
20827;DHT22;10574;52.508;13.236;2023-04-24T11:30:09;16.20;99.90
20827;DHT22;10574;52.508;13.236;2023-04-24T11:32:39;16.20;99.90
20827;DHT22;10574;52.508;13.236;2023-04-24T11:35:20;16.20;99.90
20827;DHT22;10574;52.508;13.236;2023-04-24T11:37:56;16.20;99.90
20827;DHT22;10574;52.508;13.236;2023-04-24T11:40:21;16.20;99.90
20827;DHT22;10574;52.508;13.236;2023-04-24T11:42:53;16.40;99.90
20827;DHT22;10574;52.508;13.236;2023-04-24T11:45:25;16.50;99.90
20827;DHT22;10574;52.508;13.236;2023-04-24T11:47:53;16.50;99.90
20827;DHT22;10574;52.508;13.236;2023-04-24T11:50:23;16.60;99.90
20827;DHT22;10574;52.508;13.236;2023-04-24T11:52:52;16.70;99.90
20827;DHT22;10574;52.508;13.236;2023-04-24T11:55:22;17.30;99.90
20827;DHT22;10574;52.508;13.236;2023-04-24T11:57:56;17.70;99.90
20827;DHT22;10574;52.508;13.236;2023-04-24T12:00:31;17.80;99.90
20827;DHT22;10574;52.508;13.236;2023-04-24T12:03:14;18.00;99.90
20827;DHT22;10574;52.508;13.236;2023-04-24T12:05:43;18.00;99.90
20827;DHT22;10574;52.508;13.236;2023-04-24T12:08:11;18.00;99.90
20827;DHT22;10574;52.508;13.236;2023-04-24T12:10:40;18.00;99.90
20827;DHT22;10574;52.508;13.236;2023-04-24T12:13:09;17.80;99.90
20827;DHT22;10574;52.508;13.236;2023-04-24T12:15:39;17.50;99.90
20827;DHT22;10574;52.508;13.236;2023-04-24T12:18:07;17.50;99.90
20827;DHT22;10574;52.508;13.236;2023-04-24T12:20:37;17.90;99.90
20827;DHT22;10574;52.508;13.236;2023-04-24T12:23:05;18.00;99.90
20827;DHT22;10574;52.508;13.236;2023-04-24T12:25:33;18.00;99.90
20827;DHT22;10574;52.508;13.236;2023-04-24T12:30:44;17.80;99.90
20827;DHT22;10574;52.508;13.236;2023-04-24T12:33:12;17.80;99.90
20827;DHT22;10574;52.508;13.236;2023-04-24T12:35:41;17.70;99.90
20827;DHT22;10574;52.508;13.236;2023-04-24T12:38:09;17.70;99.90
20827;DHT22;10574;52.508;13.236;2023-04-24T12:40:39;17.70;99.90
20827;DHT22;10574;52.508;13.236;2023-04-24T12:43:18;17.60;99.90
20827;DHT22;10574;52.508;13.236;2023-04-24T12:45:48;17.40;99.90
20827;DHT22;10574;52.508;13.236;2023-04-24T12:48:16;17.30;99.90
20827;DHT22;10574;52.508;13.236;2023-04-24T12:50:44;17.30;99.90
20827;DHT22;10574;52.508;13.236;2023-04-24T12:53:12;17.60;99.90
20827;DHT22;10574;52.508;13.236;2023-04-24T12:55:40;17.80;99.90
20827;DHT22;10574;52.508;13.236;2023-04-24T12:58:08;17.90;99.90
20827;DHT22;10574;52.508;13.236;2023-04-24T13:00:36;17.90;99.90
20827;DHT22;10574;52.508;13.236;2023-04-24T13:03:04;17.90;99.90
20827;DHT22;10574;52.508;13.236;2023-04-24T13:05:31;18.00;99.90
20827;DHT22;10574;52.508;13.236;2023-04-24T13:07:59;18.30;99.90
20827;DHT22;10574;52.508;13.236;2023-04-24T13:10:28;18.50;99.90
20827;DHT22;10574;52.508;13.236;2023-04-24T13:12:56;18.80;99.90
20827;DHT22;10574;52.508;13.236;2023-04-24T13:15:23;19.00;99.90
20827;DHT22;10574;52.508;13.236;2023-04-24T13:17:51;18.80;99.90
20827;DHT22;10574;52.508;13.236;2023-04-24T13:20:19;18.50;99.90
20827;DHT22;10574;52.508;13.236;2023-04-24T13:22:47;18.40;99.90
20827;DHT22;10574;52.508;13.236;2023-04-24T13:25:15;18.20;99.90
20827;DHT22;10574;52.508;13.236;2023-04-24T13:27:44;18.00;99.90
20827;DHT22;10574;52.508;13.236;2023-04-24T13:30:12;18.00;99.90
20827;DHT22;10574;52.508;13.236;2023-04-24T13:32:40;18.10;99.90
20827;DHT22;10574;52.508;13.236;2023-04-24T13:35:10;18.40;99.90
20827;DHT22;10574;52.508;13.236;2023-04-24T13:37:37;18.50;99.90
20827;DHT22;10574;52.508;13.236;2023-04-24T13:40:06;18.40;99.90
20827;DHT22;10574;52.508;13.236;2023-04-24T13:42:34;18.50;99.90
20827;DHT22;10574;52.508;13.236;2023-04-24T13:45:03;18.40;99.90
20827;DHT22;10574;52.508;13.236;2023-04-24T13:47:31;18.20;99.90
20827;DHT22;10574;52.508;13.236;2023-04-24T13:49:58;18.00;99.90
20827;DHT22;10574;52.508;13.236;2023-04-24T13:52:26;17.90;99.90
20827;DHT22;10574;52.508;13.236;2023-04-24T13:54:54;17.80;99.90
20827;DHT22;10574;52.508;13.236;2023-04-24T13:57:22;17.80;99.90
20827;DHT22;10574;52.508;13.236;2023-04-24T13:59:50;17.60;99.90
20827;DHT22;10574;52.508;13.236;2023-04-24T14:02:18;17.60;99.90
20827;DHT22;10574;52.508;13.236;2023-04-24T14:04:46;17.50;99.90
20827;DHT22;10574;52.508;13.236;2023-04-24T14:07:14;17.80;99.90
20827;DHT22;10574;52.508;13.236;2023-04-24T14:09:42;18.10;99.90
20827;DHT22;10574;52.508;13.236;2023-04-24T14:12:10;18.00;98.30
20827;DHT22;10574;52.508;13.236;2023-04-24T14:14:38;18.00;97.20
20827;DHT22;10574;52.508;13.236;2023-04-24T14:17:06;18.30;96.10
20827;DHT22;10574;52.508;13.236;2023-04-24T14:19:34;18.50;92.80
20827;DHT22;10574;52.508;13.236;2023-04-24T14:22:01;18.40;92.00
20827;DHT22;10574;52.508;13.236;2023-04-24T14:24:29;18.10;92.90
20827;DHT22;10574;52.508;13.236;2023-04-24T14:26:58;18.00;93.90
20827;DHT22;10574;52.508;13.236;2023-04-24T14:29:27;17.90;94.30
20827;DHT22;10574;52.508;13.236;2023-04-24T14:31:54;17.80;93.50
20827;DHT22;10574;52.508;13.236;2023-04-24T14:34:22;18.00;93.30
20827;DHT22;10574;52.508;13.236;2023-04-24T14:36:50;18.20;93.10
20827;DHT22;10574;52.508;13.236;2023-04-24T14:39:18;18.40;92.80
20827;DHT22;10574;52.508;13.236;2023-04-24T14:41:46;18.40;91.60
20827;DHT22;10574;52.508;13.236;2023-04-24T14:44:14;18.40;90.20
20827;DHT22;10574;52.508;13.236;2023-04-24T14:46:42;18.20;90.30
20827;DHT22;10574;52.508;13.236;2023-04-24T14:49:09;17.90;91.10
20827;DHT22;10574;52.508;13.236;2023-04-24T14:51:39;17.70;91.20
20827;DHT22;10574;52.508;13.236;2023-04-24T14:54:07;17.70;91.70
20827;DHT22;10574;52.508;13.236;2023-04-24T14:56:35;17.60;92.30
20827;DHT22;10574;52.508;13.236;2023-04-24T14:59:03;17.50;92.00
20827;DHT22;10574;52.508;13.236;2023-04-24T15:01:33;17.30;92.50
20827;DHT22;10574;52.508;13.236;2023-04-24T15:04:00;17.10;93.30
20827;DHT22;10574;52.508;13.236;2023-04-24T15:06:29;17.10;93.80
20827;DHT22;10574;52.508;13.236;2023-04-24T15:08:59;17.30;93.80
20827;DHT22;10574;52.508;13.236;2023-04-24T15:11:27;17.50;93.00
20827;DHT22;10574;52.508;13.236;2023-04-24T15:13:55;17.60;93.60
20827;DHT22;10574;52.508;13.236;2023-04-24T15:16:24;17.50;91.80
20827;DHT22;10574;52.508;13.236;2023-04-24T15:18:51;17.30;92.60
20827;DHT22;10574;52.508;13.236;2023-04-24T15:21:19;17.20;92.30
20827;DHT22;10574;52.508;13.236;2023-04-24T15:23:47;17.10;92.50
20827;DHT22;10574;52.508;13.236;2023-04-24T15:26:15;16.90;93.50
20827;DHT22;10574;52.508;13.236;2023-04-24T15:28:43;16.80;93.30
20827;DHT22;10574;52.508;13.236;2023-04-24T15:31:12;16.70;94.10
20827;DHT22;10574;52.508;13.236;2023-04-24T15:33:40;16.50;94.90